Byers, Kansas
Current Conditions -  °F | °C
As of 1:15 PM on Friday 24 Oct 2014 (Local Time) from KPTT Reporting Station
Clear Clear  
Wind Chill: 77°   Ceiling: Unl
Heat Index: 79°   Visibility: 10mi
Dew Point: 61°   Wind: 7mph
Humidity: 57%   Direction: 220°SW
Pressure: 30.07"   Gusts: NA
Location:  37.79°N, 98.87°W
Report Text: KPTT 241815Z AUTO 22006KT 10SM CLR 25/16 A3007 RMK AO2
Loading
Personal Weather Stations






























Interactive Weather Map
Tropical Storm Tracking
New forecast layout! Learn more

10-Day Weather Forecast

Advertisements
Track Severe Weather on mobile